Time;durP1;ratioP1;P1;durP2;ratioP2;P2;SDS_P1;SDS_P2;PMS_P1;PMS_P2;Temp;Humidity;BMP_temperature;BMP_pressure;BME280_temperature;BME280_humidity;BME280_pressure;Samples;Min_cycle;Max_cycle;Signal;HPM_P1;HPM_P2
2022/12/16 00:01:27;;;;;;;;;;;-0.30;99.90;;;;;;5014105;28;20298;-75
2022/12/16 00:03:59;;;;;;;;;;;-0.30;99.90;;;;;;5026523;28;20299;-75
2022/12/16 00:06:31;;;;;;;;;;;-0.30;99.90;;;;;;5002693;28;19929;-75
2022/12/16 00:09:03;;;;;;;;;;;-0.30;99.90;;;;;;5022559;28;19929;-75
2022/12/16 00:11:31;;;;;;;;;;;-0.30;99.90;;;;;;5014224;28;20369;-75
2022/12/16 00:14:02;;;;;;;;;;;-0.30;99.90;;;;;;4998054;28;19972;-75
2022/12/16 00:16:34;;;;;;;;;;;-0.30;99.90;;;;;;4998957;28;20391;-75
2022/12/16 00:19:06;;;;;;;;;;;-0.30;99.90;;;;;;4990979;28;19925;-75
2022/12/16 00:21:37;;;;;;;;;;;-0.30;99.90;;;;;;4991060;28;19956;-75
2022/12/16 00:24:04;;;;;;;;;;;-0.30;99.90;;;;;;5009786;28;20390;-75
2022/12/16 00:26:30;;;;;;;;;;;-0.30;99.90;;;;;;4997103;28;19929;-75
2022/12/16 00:28:57;;;;;;;;;;;-0.30;99.90;;;;;;5010423;28;19929;-75
2022/12/16 00:31:29;;;;;;;;;;;-0.30;99.90;;;;;;5007289;28;20277;-75
2022/12/16 00:34:00;;;;;;;;;;;-0.30;99.90;;;;;;5020123;28;19929;-74
2022/12/16 00:36:32;;;;;;;;;;;-0.30;99.90;;;;;;5009306;28;19984;-75
2022/12/16 00:39:04;;;;;;;;;;;-0.30;99.90;;;;;;5009211;28;19929;-74
2022/12/16 00:41:35;;;;;;;;;;;-0.20;99.90;;;;;;5002221;28;19929;-74
2022/12/16 00:44:02;;;;;;;;;;;-0.20;99.90;;;;;;5013564;28;20007;-75
2022/12/16 00:46:34;;;;;;;;;;;-0.30;99.90;;;;;;5006630;28;20307;-75
2022/12/16 00:49:05;;;;;;;;;;;-0.30;99.90;;;;;;5011364;28;20774;-75
2022/12/16 00:51:37;;;;;;;;;;;-0.30;99.90;;;;;;5025320;28;20463;-75
2022/12/16 00:54:09;;;;;;;;;;;-0.30;99.90;;;;;;5009305;28;20391;-75
2022/12/16 00:56:40;;;;;;;;;;;-0.30;99.90;;;;;;5003550;28;19925;-75
2022/12/16 00:59:12;;;;;;;;;;;-0.30;99.90;;;;;;5007636;28;19925;-75
2022/12/16 01:01:43;;;;;;;;;;;-0.30;99.90;;;;;;5023097;28;19948;-75
2022/12/16 01:04:15;;;;;;;;;;;-0.30;99.90;;;;;;5028482;28;19979;-75
2022/12/16 01:06:47;;;;;;;;;;;-0.20;99.90;;;;;;5013785;28;19925;-75
2022/12/16 01:09:18;;;;;;;;;;;-0.20;99.90;;;;;;5022448;28;19925;-76
2022/12/16 01:11:45;;;;;;;;;;;-0.20;99.90;;;;;;5013354;28;19925;-75
2022/12/16 01:14:16;;;;;;;;;;;-0.30;99.90;;;;;;5022248;28;19926;-75
2022/12/16 01:16:43;;;;;;;;;;;-0.30;99.90;;;;;;4994722;28;19964;-75
2022/12/16 01:19:14;;;;;;;;;;;-0.30;99.90;;;;;;4992172;28;19932;-76
2022/12/16 01:21:41;;;;;;;;;;;-0.30;99.90;;;;;;4994283;28;20089;-75
2022/12/16 01:24:12;;;;;;;;;;;-0.30;99.90;;;;;;5001883;28;19926;-75
2022/12/16 01:26:44;;;;;;;;;;;-0.30;99.90;;;;;;5017426;28;19926;-75
2022/12/16 01:29:15;;;;;;;;;;;-0.30;99.90;;;;;;5021948;28;20380;-75
2022/12/16 01:31:47;;;;;;;;;;;-0.30;99.90;;;;;;5021677;28;19975;-74
2022/12/16 01:34:19;;;;;;;;;;;-0.30;99.90;;;;;;5009478;28;19926;-74
2022/12/16 01:36:50;;;;;;;;;;;-0.30;99.90;;;;;;5008649;28;19925;-76
2022/12/16 01:39:17;;;;;;;;;;;-0.30;99.90;;;;;;4987169;28;19925;-75
2022/12/16 01:41:43;;;;;;;;;;;-0.30;99.90;;;;;;5014039;28;19933;-75
2022/12/16 01:44:16;;;;;;;;;;;-0.20;99.90;;;;;;5024487;28;19979;-74
2022/12/16 01:46:47;;;;;;;;;;;-0.20;99.90;;;;;;5014061;28;19925;-75
2022/12/16 01:49:21;;;;;;;;;;;-0.20;99.90;;;;;;5026763;28;19929;-76
2022/12/16 01:51:54;;;;;;;;;;;-0.20;99.90;;;;;;5011071;28;19933;-75
2022/12/16 01:54:41;;;;;;;;;;;-0.20;99.90;;;;;;5022164;28;19929;-75
2022/12/16 01:57:18;;;;;;;;;;;-0.20;99.90;;;;;;5021072;28;19929;-74
2022/12/16 01:59:51;;;;;;;;;;;-0.20;99.90;;;;;;5014105;28;19956;-74
2022/12/16 02:02:23;;;;;;;;;;;-0.30;99.90;;;;;;5013421;28;19936;-74
2022/12/16 02:07:39;;;;;;;;;;;-0.30;99.90;;;;;;5028051;28;19925;-74
2022/12/16 02:10:11;;;;;;;;;;;-0.30;99.90;;;;;;4992790;28;19934;-74
2022/12/16 02:12:46;;;;;;;;;;;-0.30;99.90;;;;;;5010503;28;19925;-74
2022/12/16 02:15:21;;;;;;;;;;;-0.30;99.90;;;;;;4999597;28;19929;-76
2022/12/16 02:17:53;;;;;;;;;;;-0.30;99.90;;;;;;5022990;28;19925;-74
2022/12/16 02:20:19;;;;;;;;;;;-0.30;99.90;;;;;;5030714;28;19932;-74
2022/12/16 02:23:10;;;;;;;;;;;-0.30;99.90;;;;;;5027418;28;20348;-74
2022/12/16 02:25:56;;;;;;;;;;;-0.30;99.90;;;;;;5007843;28;20350;-74
2022/12/16 02:28:40;;;;;;;;;;;-0.30;99.90;;;;;;5024194;28;19929;-74
2022/12/16 02:31:15;;;;;;;;;;;-0.30;99.90;;;;;;5020138;28;20340;-75
2022/12/16 02:33:47;;;;;;;;;;;-0.30;99.90;;;;;;5017146;28;19925;-76
2022/12/16 02:36:18;;;;;;;;;;;-0.30;99.90;;;;;;5021763;28;19925;-74
2022/12/16 02:38:56;;;;;;;;;;;-0.40;99.90;;;;;;5020943;28;20371;-76
2022/12/16 02:41:37;;;;;;;;;;;-0.40;99.90;;;;;;5024517;28;19929;-74
2022/12/16 02:44:10;;;;;;;;;;;-0.40;99.90;;;;;;5020282;28;20387;-74
2022/12/16 02:46:51;;;;;;;;;;;-0.40;99.90;;;;;;5023864;28;20312;-74
2022/12/16 02:49:18;;;;;;;;;;;-0.40;99.90;;;;;;5007326;28;19936;-74
2022/12/16 02:51:50;;;;;;;;;;;-0.40;99.90;;;;;;5011853;28;19925;-75
2022/12/16 02:54:21;;;;;;;;;;;-0.50;99.90;;;;;;5011541;28;20381;-74
2022/12/16 02:57:02;;;;;;;;;;;-0.50;99.90;;;;;;5012172;28;19925;-74
2022/12/16 02:59:32;;;;;;;;;;;-0.50;99.90;;;;;;5026056;28;19937;-74
2022/12/16 03:02:11;;;;;;;;;;;-0.60;99.90;;;;;;5011636;28;19995;-74
2022/12/16 03:04:45;;;;;;;;;;;-0.60;99.90;;;;;;5015805;28;20116;-74
2022/12/16 03:07:17;;;;;;;;;;;-0.60;99.90;;;;;;5021685;28;19987;-74
2022/12/16 03:09:49;;;;;;;;;;;-0.60;99.90;;;;;;5011583;28;19933;-74
2022/12/16 03:12:21;;;;;;;;;;;-0.60;99.90;;;;;;5000404;28;19976;-75
2022/12/16 03:14:54;;;;;;;;;;;-0.60;99.90;;;;;;4986938;28;19932;-74
2022/12/16 03:17:26;;;;;;;;;;;-0.60;99.90;;;;;;5014288;28;19925;-76
2022/12/16 03:20:18;;;;;;;;;;;-0.60;99.90;;;;;;5019320;28;20355;-74
2022/12/16 03:22:51;;;;;;;;;;;-0.60;99.90;;;;;;5002155;28;20339;-73
2022/12/16 03:25:20;;;;;;;;;;;-0.60;99.90;;;;;;5006743;28;19955;-73
2022/12/16 03:28:10;;;;;;;;;;;-0.70;99.90;;;;;;4993011;28;20398;-76
2022/12/16 03:30:46;;;;;;;;;;;-0.60;99.90;;;;;;5023020;28;19933;-73
2022/12/16 03:33:21;;;;;;;;;;;-0.60;99.90;;;;;;5005852;28;20005;-73
2022/12/16 03:35:49;;;;;;;;;;;-0.70;99.90;;;;;;4995793;28;19991;-76
2022/12/16 03:38:18;;;;;;;;;;;-0.70;99.90;;;;;;4986187;28;20452;-75
2022/12/16 03:40:50;;;;;;;;;;;-0.70;99.90;;;;;;4984600;28;19925;-75
2022/12/16 03:43:17;;;;;;;;;;;-0.80;99.90;;;;;;4989570;28;19961;-75
2022/12/16 03:45:51;;;;;;;;;;;-0.80;99.90;;;;;;5018430;28;19926;-74
2022/12/16 03:48:24;;;;;;;;;;;-0.80;99.90;;;;;;5012337;28;19987;-73
2022/12/16 03:50:51;;;;;;;;;;;-0.80;99.90;;;;;;5024528;28;19925;-73
2022/12/16 03:53:25;;;;;;;;;;;-0.80;99.90;;;;;;5022893;28;19929;-73
2022/12/16 03:55:52;;;;;;;;;;;-0.80;99.90;;;;;;5008178;28;20011;-73
2022/12/16 03:58:23;;;;;;;;;;;-0.90;99.90;;;;;;5013052;28;19933;-73
2022/12/16 04:00:55;;;;;;;;;;;-0.90;99.90;;;;;;5020716;28;19995;-74
2022/12/16 04:03:27;;;;;;;;;;;-0.90;99.90;;;;;;5008743;28;19931;-73
2022/12/16 04:05:53;;;;;;;;;;;-0.90;99.90;;;;;;5012958;28;19977;-74
2022/12/16 04:08:25;;;;;;;;;;;-0.80;99.90;;;;;;4980761;28;20265;-73
2022/12/16 04:25:12;;;;;;;;;;;-1.20;99.90;;;;;;5017178;28;20412;-72
2022/12/16 04:27:45;;;;;;;;;;;-1.20;99.90;;;;;;4982079;28;19950;-72
2022/12/16 04:30:18;;;;;;;;;;;-1.30;99.90;;;;;;5017477;28;19929;-75
